Time;durP1;ratioP1;P1;durP2;ratioP2;P2;SDS_P1;SDS_P2;PMS_P1;PMS_P2;Temp;Humidity;BMP_temperature;BMP_pressure;BME280_temperature;BME280_humidity;BME280_pressure;Samples;Min_cycle;Max_cycle;Signal;HPM_P1;HPM_P2
2021/06/11 00:00:42;;;;;;;38.97;24.92;;;;;;;;;;5009227;28;20387;-67
2021/06/11 00:03:08;;;;;;;34.97;24.27;;;;;;;;;;5007857;28;20101;-67
2021/06/11 00:05:34;;;;;;;36.22;24.23;;;;;;;;;;5011600;28;20443;-67
2021/06/11 00:08:00;;;;;;;35.35;24.08;;;;;;;;;;5012298;28;20032;-67
2021/06/11 00:10:26;;;;;;;38.50;24.63;;;;;;;;;;5012105;28;20398;-67
2021/06/11 00:12:52;;;;;;;33.15;22.92;;;;;;;;;;5012089;28;20468;-67
2021/06/11 00:15:18;;;;;;;35.15;22.45;;;;;;;;;;5007787;28;20026;-67
2021/06/11 00:17:44;;;;;;;32.58;22.00;;;;;;;;;;5010683;28;20018;-67
2021/06/11 00:20:10;;;;;;;33.78;22.70;;;;;;;;;;5012320;28;20490;-67
2021/06/11 00:22:39;;;;;;;32.17;22.13;;;;;;;;;;5011881;28;20034;-67
2021/06/11 00:25:09;;;;;;;32.57;21.60;;;;;;;;;;5003516;28;20029;-67
2021/06/11 00:27:35;;;;;;;;;;;;;;;;;;5015223;28;20269;-67
2021/06/11 00:30:01;;;;;;;31.98;21.00;;;;;;;;;;5010142;28;19912;-67
2021/06/11 00:32:27;;;;;;;32.28;21.80;;;;;;;;;;5011707;28;20034;-67
2021/06/11 00:34:53;;;;;;;36.35;22.27;;;;;;;;;;5011341;28;20104;-67
2021/06/11 00:37:19;;;;;;;32.10;21.20;;;;;;;;;;5011424;28;20159;-67
2021/06/11 00:39:45;;;;;;;31.23;20.70;;;;;;;;;;5010669;28;20073;-67
2021/06/11 00:42:11;;;;;;;32.15;21.80;;;;;;;;;;5026653;28;20049;-67
2021/06/11 00:44:37;;;;;;;31.13;21.58;;;;;;;;;;5011243;28;20037;-67
2021/06/11 00:47:03;;;;;;;33.90;21.27;;;;;;;;;;5009868;28;20022;-67
2021/06/11 00:49:29;;;;;;;33.40;22.00;;;;;;;;;;5009496;28;20434;-67
2021/06/11 00:51:55;;;;;;;34.03;21.33;;;;;;;;;;5013765;28;20498;-67
2021/06/11 00:54:21;;;;;;;32.58;21.50;;;;;;;;;;5009578;28;20108;-67
2021/06/11 00:56:48;;;;;;;35.03;21.08;;;;;;;;;;5010374;28;20037;-67
2021/06/11 00:59:14;;;;;;;36.10;21.63;;;;;;;;;;5009780;28;20022;-67
2021/06/11 01:01:41;;;;;;;32.28;21.42;;;;;;;;;;5009547;28;20041;-67
2021/06/11 01:04:08;;;;;;;28.73;20.77;;;;;;;;;;5011351;28;20372;-67
2021/06/11 01:06:35;;;;;;;36.28;22.23;;;;;;;;;;5017729;28;20493;-67
2021/06/11 01:09:01;;;;;;;32.88;22.15;;;;;;;;;;5011343;28;20021;-67
2021/06/11 01:11:26;;;;;;;33.80;21.98;;;;;;;;;;5010657;28;20483;-67
2021/06/11 01:13:53;;;;;;;31.50;21.60;;;;;;;;;;5015349;28;20432;-67
2021/06/11 01:16:18;;;;;;;30.30;21.15;;;;;;;;;;5013478;28;20029;-67
2021/06/11 01:18:44;;;;;;;29.95;19.92;;;;;;;;;;5010294;28;20049;-67
2021/06/11 01:21:11;;;;;;;28.90;18.95;;;;;;;;;;5020514;28;20026;-67
2021/06/11 01:23:39;;;;;;;24.55;18.20;;;;;;;;;;5010990;28;20105;-67
2021/06/11 01:26:24;;;;;;;32.05;19.88;;;;;;;;;;5010920;28;20451;-67
2021/06/11 01:28:54;;;;;;;35.60;19.70;;;;;;;;;;5020281;28;20018;-66
2021/06/11 01:31:21;;;;;;;61.53;22.65;;;;;;;;;;5023058;28;20021;-66
2021/06/11 01:33:48;;;;;;;80.20;23.20;;;;;;;;;;5013019;28;20029;-66
2021/06/11 01:36:16;;;;;;;81.00;22.38;;;;;;;;;;5017179;28;20302;-66
2021/06/11 01:38:43;;;;;;;147.60;23.70;;;;;;;;;;5021418;28;20033;-66
2021/06/11 01:41:10;;;;;;;80.47;23.48;;;;;;;;;;5015257;28;20051;-66
2021/06/11 01:43:38;;;;;;;103.32;20.98;;;;;;;;;;5013368;28;20109;-66
2021/06/11 01:46:04;;;;;;;106.78;22.50;;;;;;;;;;5007689;28;20097;-66
2021/06/11 01:48:30;;;;;;;154.68;23.63;;;;;;;;;;5009250;28;21321;-66
2021/06/11 01:50:57;;;;;;;84.75;23.38;;;;;;;;;;5009875;28;20406;-66
2021/06/11 01:53:24;;;;;;;109.13;24.08;;;;;;;;;;5009708;28;20493;-66
2021/06/11 01:55:51;;;;;;;86.53;22.45;;;;;;;;;;5007372;28;20356;-66
2021/06/11 01:58:17;;;;;;;109.32;25.38;;;;;;;;;;5013506;28;20032;-66
2021/06/11 02:00:44;;;;;;;132.88;25.23;;;;;;;;;;5016761;28;20050;-66
2021/06/11 02:03:10;;;;;;;67.82;23.02;;;;;;;;;;5004720;28;20018;-65
2021/06/11 02:05:37;;;;;;;98.25;23.38;;;;;;;;;;5008766;28;20049;-66
2021/06/11 02:08:03;;;;;;;149.30;26.98;;;;;;;;;;5027136;28;20022;-66
2021/06/11 02:10:30;;;;;;;80.07;25.83;;;;;;;;;;5016404;28;20030;-66
2021/06/11 02:12:56;;;;;;;112.63;28.25;;;;;;;;;;5010469;28;20057;-66
2021/06/11 02:15:23;;;;;;;85.50;25.10;;;;;;;;;;5012148;28;20391;-66
2021/06/11 02:17:50;;;;;;;85.05;27.15;;;;;;;;;;5020264;28;20133;-66
2021/06/11 02:20:17;;;;;;;116.22;27.88;;;;;;;;;;5012446;28;20018;-66
2021/06/11 02:22:44;;;;;;;62.45;26.55;;;;;;;;;;5008238;28;20034;-66
2021/06/11 02:25:11;;;;;;;95.00;29.23;;;;;;;;;;5009462;28;20510;-66
2021/06/11 02:27:38;;;;;;;65.47;26.30;;;;;;;;;;5008594;28;20030;-66
2021/06/11 02:30:06;;;;;;;82.57;27.70;;;;;;;;;;5013888;28;20020;-66
2021/06/11 02:32:33;;;;;;;156.10;27.67;;;;;;;;;;5007655;28;20087;-66
2021/06/11 02:35:00;;;;;;;84.47;25.27;;;;;;;;;;5008578;28;20037;-66
2021/06/11 02:37:27;;;;;;;86.03;24.90;;;;;;;;;;5009270;28;20392;-66
2021/06/11 02:39:53;;;;;;;91.80;26.02;;;;;;;;;;5008285;28;20549;-66
2021/06/11 02:42:19;;;;;;;91.32;24.45;;;;;;;;;;5009188;28;20062;-66
2021/06/11 02:44:47;;;;;;;95.47;26.35;;;;;;;;;;5004529;28;20026;-66
2021/06/11 02:47:23;;;;;;;89.63;25.27;;;;;;;;;;5014525;28;20025;-66
2021/06/11 02:49:51;;;;;;;93.18;24.40;;;;;;;;;;5015535;28;20019;-66
2021/06/11 02:52:21;;;;;;;68.63;26.33;;;;;;;;;;5008499;28;20061;-66
2021/06/11 02:54:47;;;;;;;66.55;25.80;;;;;;;;;;5009392;28;20149;-66
2021/06/11 02:57:23;;;;;;;58.38;24.63;;;;;;;;;;5009544;28;20034;-65
2021/06/11 02:59:50;;;;;;;58.75;25.80;;;;;;;;;;5007026;28;20403;-66
2021/06/11 03:02:48;;;;;;;70.72;24.75;;;;;;;;;;5007083;28;20105;-65
2021/06/11 03:05:16;;;;;;;60.63;25.95;;;;;;;;;;4967532;28;20041;-66
2021/06/11 03:07:42;;;;;;;64.78;25.30;;;;;;;;;;5009578;28;20060;-66
2021/06/11 03:10:09;;;;;;;80.97;24.17;;;;;;;;;;5013045;28;20030;-66
2021/06/11 03:12:38;;;;;;;64.78;22.63;;;;;;;;;;5026525;28;20445;-66
2021/06/11 03:15:04;;;;;;;68.50;22.10;;;;;;;;;;5015368;28;20026;-66
2021/06/11 03:17:32;;;;;;;84.40;25.02;;;;;;;;;;5023170;28;20549;-66
2021/06/11 03:20:00;;;;;;;84.88;27.73;;;;;;;;;;5013529;28;20138;-66
2021/06/11 03:22:32;;;;;;;67.88;28.90;;;;;;;;;;5012345;28;20390;-66
2021/06/11 03:25:18;;;;;;;74.47;31.10;;;;;;;;;;5013068;28;20020;-66
2021/06/11 03:27:46;;;;;;;123.93;33.97;;;;;;;;;;5012491;28;20058;-66
2021/06/11 03:30:15;;;;;;;141.25;39.25;;;;;;;;;;5017991;28;20064;-66
2021/06/11 03:32:43;;;;;;;119.50;40.42;;;;;;;;;;5014434;28;20546;-66
2021/06/11 03:35:13;;;;;;;97.72;39.30;;;;;;;;;;5013353;28;20097;-66
2021/06/11 03:37:40;;;;;;;98.68;40.20;;;;;;;;;;5011013;28;20516;-66
2021/06/11 03:40:12;;;;;;;121.70;44.60;;;;;;;;;;5020202;28;20156;-66
2021/06/11 03:42:38;;;;;;;127.95;45.63;;;;;;;;;;5016159;28;20037;-66
2021/06/11 03:45:04;;;;;;;110.63;45.67;;;;;;;;;;5018295;28;20391;-66
2021/06/11 03:47:36;;;;;;;126.25;48.60;;;;;;;;;;5012735;28;20479;-66
2021/06/11 03:50:02;;;;;;;120.15;46.17;;;;;;;;;;5012284;28;20022;-66
2021/06/11 03:52:30;;;;;;;111.25;47.20;;;;;;;;;;5012188;28;20038;-66
2021/06/11 03:54:57;;;;;;;105.07;44.13;;;;;;;;;;5012192;28;20598;-66
2021/06/11 03:57:27;;;;;;;110.20;48.85;;;;;;;;;;5012064;28;20475;-66
2021/06/11 03:59:53;;;;;;;98.90;43.75;;;;;;;;;;5019254;28;20463;-66
2021/06/11 04:02:19;;;;;;;97.15;44.78;;;;;;;;;;5035633;28;20390;-66
2021/06/11 04:04:45;;;;;;;96.82;46.17;;;;;;;;;;5015955;28;20029;-66
2021/06/11 04:07:21;;;;;;;85.40;41.50;;;;;;;;;;5017592;28;20361;-66
2021/06/11 04:09:49;;;;;;;78.47;38.40;;;;;;;;;;5011816;28;20026;-66
2021/06/11 04:12:21;;;;;;;82.15;39.47;;;;;;;;;;5012376;28;20025;-66
2021/06/11 04:14:49;;;;;;;76.82;38.42;;;;;;;;;;5011363;28;20483;-66
2021/06/11 04:17:17;;;;;;;90.05;43.10;;;;;;;;;;5018748;28;20751;-66
2021/06/11 04:19:54;;;;;;;98.18;46.38;;;;;;;;;;5012417;28;20037;-66
2021/06/11 04:22:23;;;;;;;98.85;45.67;;;;;;;;;;5005862;28;20053;-66
2021/06/11 04:24:50;;;;;;;99.18;47.03;;;;;;;;;;5012125;28;20034;-66
2021/06/11 04:27:17;;;;;;;99.85;46.60;;;;;;;;;;5019647;28;20025;-66
2021/06/11 04:29:45;;;;;;;98.20;48.67;;;;;;;;;;5012827;28;20069;-66
2021/06/11 04:32:11;;;;;;;105.57;47.90;;;;;;;;;;5012472;28;20830;-66
2021/06/11 04:34:37;;;;;;;112.40;50.65;;;;;;;;;;5026736;28;20026;-66
2021/06/11 04:37:04;;;;;;;99.55;47.17;;;;;;;;;;5011226;28;20080;-66
2021/06/11 04:39:29;;;;;;;109.53;51.20;;;;;;;;;;5011574;28;20037;-66
2021/06/11 04:41:55;;;;;;;113.82;53.58;;;;;;;;;;5015975;28;20373;-66
2021/06/11 04:44:22;;;;;;;119.32;53.28;;;;;;;;;;5011840;28;20448;-66
2021/06/11 04:46:48;;;;;;;117.07;53.58;;;;;;;;;;5011035;28;20108;-66
2021/06/11 04:49:14;;;;;;;122.35;55.83;;;;;;;;;;5010926;28;20100;-66
2021/06/11 04:51:40;;;;;;;132.13;57.58;;;;;;;;;;5011821;28;20046;-66
2021/06/11 04:54:06;;;;;;;134.70;58.15;;;;;;;;;;5018643;28;20459;-66
2021/06/11 04:56:32;;;;;;;134.43;56.53;;;;;;;;;;5011518;28;20476;-66
2021/06/11 04:59:00;;;;;;;133.93;56.15;;;;;;;;;;5015895;28;20040;-66
2021/06/11 05:01:26;;;;;;;118.07;50.75;;;;;;;;;;5011638;28;20025;-66
2021/06/11 05:03:52;;;;;;;122.45;49.55;;;;;;;;;;5011327;28;20040;-66
2021/06/11 05:06:18;;;;;;;125.50;52.63;;;;;;;;;;5020548;28;20018;-66
2021/06/11 05:08:45;;;;;;;126.53;51.92;;;;;;;;;;5010992;28;20542;-66
2021/06/11 05:11:11;;;;;;;98.03;43.50;;;;;;;;;;5024502;28;20101;-66
2021/06/11 05:13:37;;;;;;;84.95;39.05;;;;;;;;;;5010262;28;20033;-66
2021/06/11 05:16:03;;;;;;;80.93;37.10;;;;;;;;;;5014848;28;20029;-66
2021/06/11 05:18:30;;;;;;;102.18;44.85;;;;;;;;;;5012493;28;20022;-66
2021/06/11 05:20:57;;;;;;;109.22;46.92;;;;;;;;;;5011052;28;20030;-66
2021/06/11 05:23:23;;;;;;;103.25;44.38;;;;;;;;;;5010640;28;20018;-66
2021/06/11 05:25:49;;;;;;;79.93;40.50;;;;;;;;;;5009378;28;20105;-66
2021/06/11 05:28:16;;;;;;;68.55;35.90;;;;;;;;;;5010060;28;20026;-67
2021/06/11 05:30:43;;;;;;;68.93;34.97;;;;;;;;;;5009103;28;20028;-67
2021/06/11 05:33:09;;;;;;;74.25;39.55;;;;;;;;;;5010038;28;20387;-66
2021/06/11 05:35:35;;;;;;;72.65;38.03;;;;;;;;;;5010847;28;20030;-67
2021/06/11 05:38:04;;;;;;;64.05;34.40;;;;;;;;;;4995041;28;20025;-66
2021/06/11 05:40:31;;;;;;;51.72;30.13;;;;;;;;;;5009292;28;20022;-66
2021/06/11 05:42:57;;;;;;;53.25;29.65;;;;;;;;;;5008577;28;20120;-66
2021/06/11 05:45:23;;;;;;;48.50;29.17;;;;;;;;;;5009269;28;20113;-66
2021/06/11 05:47:49;;;;;;;47.38;30.17;;;;;;;;;;5008974;28;20048;-66
2021/06/11 05:50:15;;;;;;;48.40;29.02;;;;;;;;;;5009615;28;20026;-66
2021/06/11 05:52:41;;;;;;;48.90;29.15;;;;;;;;;;5008970;28;20018;-66
2021/06/11 05:55:08;;;;;;;59.17;34.13;;;;;;;;;;5017803;28;20386;-68
2021/06/11 05:57:34;;;;;;;62.40;35.78;;;;;;;;;;5006911;28;20033;-67
2021/06/11 06:00:00;;;;;;;65.60;37.88;;;;;;;;;;5007035;28;20105;-67
2021/06/11 06:02:26;;;;;;;55.25;33.83;;;;;;;;;;5009113;28;20034;-67
2021/06/11 06:04:52;;;;;;;50.97;29.92;;;;;;;;;;5008784;28;20034;-67
2021/06/11 06:07:18;;;;;;;50.63;29.35;;;;;;;;;;5010928;28;20022;-67
2021/06/11 06:09:44;;;;;;;48.88;29.23;;;;;;;;;;5009503;28;20024;-67
2021/06/11 06:12:10;;;;;;;47.53;29.75;;;;;;;;;;5006979;28;20113;-69
2021/06/11 06:14:36;;;;;;;48.35;28.50;;;;;;;;;;5008086;28;20044;-68
2021/06/11 06:17:03;;;;;;;50.85;29.90;;;;;;;;;;5011723;28;20018;-68
2021/06/11 06:19:29;;;;;;;48.53;27.75;;;;;;;;;;5006939;28;20088;-68
2021/06/11 06:21:54;;;;;;;45.80;26.77;;;;;;;;;;5009176;28;21369;-67
2021/06/11 06:24:21;;;;;;;43.65;25.60;;;;;;;;;;5011028;28;20022;-67
2021/06/11 06:26:47;;;;;;;35.53;24.25;;;;;;;;;;5008776;28;20434;-68
2021/06/11 06:29:13;;;;;;;39.47;24.85;;;;;;;;;;5006725;28;20042;-67
2021/06/11 06:31:38;;;;;;;40.03;25.00;;;;;;;;;;5008614;28;20068;-66
2021/06/11 06:34:05;;;;;;;42.20;25.10;;;;;;;;;;5009684;28;20026;-67
2021/06/11 06:36:31;;;;;;;40.40;24.85;;;;;;;;;;5008821;28;20503;-67
2021/06/11 06:39:00;;;;;;;38.20;24.02;;;;;;;;;;5009158;28;20030;-68
2021/06/11 06:41:26;;;;;;;40.05;25.02;;;;;;;;;;5008072;28;20029;-68
2021/06/11 06:43:52;;;;;;;41.97;25.08;;;;;;;;;;5012354;28;20034;-69
2021/06/11 06:46:22;;;;;;;37.55;24.38;;;;;;;;;;5013279;28;20029;-69
2021/06/11 06:48:51;;;;;;;39.75;24.73;;;;;;;;;;5013149;28;20470;-69
2021/06/11 06:51:19;;;;;;;41.55;26.27;;;;;;;;;;5011414;28;20047;-68
2021/06/11 06:53:45;;;;;;;37.90;25.40;;;;;;;;;;5012993;28;20025;-69
2021/06/11 06:56:11;;;;;;;38.03;24.88;;;;;;;;;;5011913;28;20033;-68
2021/06/11 06:58:37;;;;;;;39.83;24.88;;;;;;;;;;5013753;28;20033;-68
2021/06/11 07:01:04;;;;;;;39.28;26.38;;;;;;;;;;5012491;28;20475;-68
2021/06/11 07:03:31;;;;;;;43.20;27.70;;;;;;;;;;5013434;28;20057;-69
2021/06/11 07:05:57;;;;;;;39.28;25.55;;;;;;;;;;5013086;28;20018;-68
2021/06/11 07:08:25;;;;;;;37.42;25.90;;;;;;;;;;5023743;28;20030;-68
2021/06/11 07:10:51;;;;;;;33.63;25.10;;;;;;;;;;5021151;28;20383;-68
2021/06/11 07:13:17;;;;;;;35.90;25.00;;;;;;;;;;5012423;28;20033;-68
2021/06/11 07:15:43;;;;;;;38.70;26.58;;;;;;;;;;5012654;28;20076;-68
2021/06/11 07:18:10;;;;;;;34.65;24.77;;;;;;;;;;5013362;28;20166;-68
2021/06/11 07:20:35;;;;;;;39.03;24.95;;;;;;;;;;5010058;28;20057;-69
2021/06/11 07:23:01;;;;;;;32.80;23.40;;;;;;;;;;5013444;28;20038;-69
2021/06/11 07:25:27;;;;;;;35.40;23.60;;;;;;;;;;5013075;28;20072;-69
2021/06/11 07:27:53;;;;;;;36.20;25.33;;;;;;;;;;5012643;28;20018;-68
2021/06/11 07:30:19;;;;;;;35.33;24.05;;;;;;;;;;5012248;28;20430;-68
2021/06/11 07:32:45;;;;;;;35.63;24.65;;;;;;;;;;5012686;28;20084;-67
2021/06/11 07:35:12;;;;;;;29.67;22.70;;;;;;;;;;5014090;28;20030;-67
2021/06/11 07:37:38;;;;;;;32.03;22.67;;;;;;;;;;5012069;28;20032;-67
2021/06/11 07:40:05;;;;;;;30.10;21.60;;;;;;;;;;5012262;28;20037;-69
2021/06/11 07:42:31;;;;;;;31.38;19.67;;;;;;;;;;5011283;28;20040;-67
2021/06/11 07:44:57;;;;;;;28.52;21.00;;;;;;;;;;5012186;28;20105;-67
2021/06/11 07:47:23;;;;;;;28.88;20.10;;;;;;;;;;5011345;28;20034;-67
2021/06/11 07:49:49;;;;;;;32.58;20.92;;;;;;;;;;5012510;28;20033;-67
2021/06/11 07:52:15;;;;;;;29.88;21.20;;;;;;;;;;5003343;28;20048;-66
2021/06/11 07:54:41;;;;;;;28.60;21.33;;;;;;;;;;5012756;28;20031;-66
2021/06/11 07:57:07;;;;;;;27.35;21.23;;;;;;;;;;5007816;28;20434;-66
2021/06/11 07:59:33;;;;;;;26.42;19.77;;;;;;;;;;5009528;28;20692;-66
2021/06/11 08:01:59;;;;;;;31.42;23.02;;;;;;;;;;5010758;28;20075;-66
2021/06/11 08:04:26;;;;;;;28.05;21.38;;;;;;;;;;5010415;28;20046;-66
2021/06/11 08:06:52;;;;;;;31.25;22.50;;;;;;;;;;5009802;28;20383;-66
2021/06/11 08:09:18;;;;;;;31.10;24.38;;;;;;;;;;5010014;28;20574;-66
2021/06/11 08:11:44;;;;;;;32.38;24.00;;;;;;;;;;5009835;28;20026;-66
2021/06/11 08:14:10;;;;;;;31.77;21.77;;;;;;;;;;5013710;28;20388;-66
2021/06/11 08:16:36;;;;;;;29.42;21.08;;;;;;;;;;5005896;28;20099;-66
2021/06/11 08:19:02;;;;;;;24.77;19.98;;;;;;;;;;5010398;28;20030;-66
2021/06/11 08:21:28;;;;;;;24.17;18.17;;;;;;;;;;5009907;28;20120;-65
2021/06/11 08:23:54;;;;;;;25.85;19.08;;;;;;;;;;5009323;28;20506;-66
2021/06/11 08:26:20;;;;;;;23.27;18.67;;;;;;;;;;5010542;28;20712;-65
2021/06/11 08:28:46;;;;;;;24.33;18.60;;;;;;;;;;5006980;28;20029;-66
2021/06/11 08:31:12;;;;;;;21.52;18.58;;;;;;;;;;5008169;28;20026;-66
2021/06/11 08:33:38;;;;;;;23.15;18.60;;;;;;;;;;5007994;28;20057;-66
2021/06/11 08:36:04;;;;;;;21.23;16.70;;;;;;;;;;5012102;28;20021;-66
2021/06/11 08:38:30;;;;;;;20.08;17.42;;;;;;;;;;5011499;28;20480;-66
2021/06/11 08:40:56;;;;;;;21.70;16.23;;;;;;;;;;5007517;28;20036;-66
2021/06/11 08:43:22;;;;;;;16.55;13.88;;;;;;;;;;5006062;28;20025;-66
2021/06/11 08:45:49;;;;;;;16.30;13.10;;;;;;;;;;5006627;28;20014;-66
2021/06/11 08:48:15;;;;;;;20.60;14.40;;;;;;;;;;5008143;28;20014;-66
2021/06/11 08:50:41;;;;;;;17.75;14.40;;;;;;;;;;5009075;28;20037;-66
2021/06/11 08:53:07;;;;;;;18.00;14.20;;;;;;;;;;5011736;28;20026;-66
2021/06/11 08:55:34;;;;;;;19.15;13.98;;;;;;;;;;5010036;28;20546;-66
2021/06/11 08:58:00;;;;;;;14.48;12.02;;;;;;;;;;5009651;28;20104;-66
2021/06/11 09:00:28;;;;;;;14.43;11.15;;;;;;;;;;5008417;28;20312;-67
2021/06/11 09:03:13;;;;;;;14.30;10.90;;;;;;;;;;5008182;28;20022;-66
2021/06/11 09:05:40;;;;;;;16.55;11.75;;;;;;;;;;5010461;28;20022;-66
2021/06/11 09:08:19;;;;;;;15.40;12.95;;;;;;;;;;5006703;28;20045;-66
2021/06/11 09:10:45;;;;;;;20.85;14.70;;;;;;;;;;5009446;28;20034;-66
2021/06/11 09:13:20;;;;;;;15.80;14.02;;;;;;;;;;5004703;28;20018;-65
2021/06/11 09:15:46;;;;;;;18.38;13.75;;;;;;;;;;5003472;28;20026;-64
2021/06/11 09:18:19;;;;;;;17.73;14.38;;;;;;;;;;5010487;28;20022;-65
2021/06/11 09:20:45;;;;;;;19.52;14.88;;;;;;;;;;5004427;28;20677;-65
2021/06/11 09:23:11;;;;;;;20.30;15.70;;;;;;;;;;5003025;28;20108;-64
2021/06/11 09:25:45;;;;;;;22.40;16.65;;;;;;;;;;5004676;28;20480;-64
2021/06/11 09:28:16;;;;;;;16.42;14.13;;;;;;;;;;5009357;28;20028;-64
2021/06/11 09:30:42;;;;;;;18.73;12.95;;;;;;;;;;5008825;28;20139;-64
2021/06/11 09:33:15;;;;;;;14.80;11.65;;;;;;;;;;5006241;28;20030;-64
2021/06/11 09:35:43;;;;;;;14.25;11.73;;;;;;;;;;5008048;28;20018;-64
2021/06/11 09:38:26;;;;;;;17.75;13.70;;;;;;;;;;5007474;28;20467;-64
2021/06/11 09:40:58;;;;;;;17.50;13.45;;;;;;;;;;5008769;28;20283;-65
2021/06/11 09:43:25;;;;;;;18.42;14.25;;;;;;;;;;4999204;28;20018;-65
2021/06/11 09:46:04;;;;;;;18.08;13.63;;;;;;;;;;5003653;28;20076;-65
2021/06/11 09:48:39;;;;;;;15.77;13.48;;;;;;;;;;5007736;28;20022;-65
2021/06/11 09:51:12;;;;;;;15.90;13.75;;;;;;;;;;5008004;28;20022;-65
2021/06/11 09:53:38;;;;;;;15.57;12.82;;;;;;;;;;5008597;28;20018;-65
2021/06/11 09:56:04;;;;;;;14.23;11.88;;;;;;;;;;5004007;28;20033;-65
2021/06/11 09:58:33;;;;;;;15.48;11.70;;;;;;;;;;5002300;28;20050;-65
2021/06/11 10:01:00;;;;;;;13.65;12.18;;;;;;;;;;5006101;28;20439;-65
2021/06/11 10:03:28;;;;;;;16.55;12.88;;;;;;;;;;5005447;28;20045;-65
2021/06/11 10:06:07;;;;;;;15.90;13.30;;;;;;;;;;5006021;28;20025;-65
2021/06/11 10:08:34;;;;;;;16.55;13.65;;;;;;;;;;5015314;28;20034;-65
2021/06/11 10:11:01;;;;;;;15.90;14.20;;;;;;;;;;5003439;28;20026;-64
2021/06/11 10:13:27;;;;;;;15.73;13.20;;;;;;;;;;5007904;28;20470;-64
2021/06/11 10:15:54;;;;;;;17.10;15.25;;;;;;;;;;5007071;28;20118;-64
2021/06/11 10:18:21;;;;;;;16.75;14.60;;;;;;;;;;5006542;28;20119;-64
2021/06/11 10:20:47;;;;;;;17.30;14.57;;;;;;;;;;5009441;28;20037;-64
2021/06/11 10:23:15;;;;;;;15.13;13.52;;;;;;;;;;5006143;28;20022;-64
2021/06/11 10:25:43;;;;;;;16.83;15.10;;;;;;;;;;5009018;28;20080;-64
2021/06/11 10:28:12;;;;;;;16.23;14.50;;;;;;;;;;5009457;28;20371;-64
2021/06/11 10:30:57;;;;;;;18.13;15.40;;;;;;;;;;4983725;28;20126;-64
2021/06/11 10:33:53;;;;;;;17.23;15.52;;;;;;;;;;5004318;28;20435;-64
2021/06/11 10:38:58;;;;;;;15.27;13.77;;;;;;;;;;5008137;28;20169;-65
2021/06/11 10:41:25;;;;;;;16.65;14.77;;;;;;;;;;5009380;28;20022;-65
2021/06/11 10:43:51;;;;;;;13.35;12.05;;;;;;;;;;5009501;28;20033;-65
2021/06/11 10:46:22;;;;;;;15.05;13.55;;;;;;;;;;5006623;28;20396;-65
2021/06/11 10:48:57;;;;;;;12.50;11.20;;;;;;;;;;5006407;28;20034;-65
2021/06/11 10:51:33;;;;;;;15.70;14.05;;;;;;;;;;5006864;28;20487;-65
2021/06/11 10:54:21;;;;;;;20.38;17.55;;;;;;;;;;5006586;28;20034;-65
2021/06/11 10:56:56;;;;;;;19.17;17.15;;;;;;;;;;4996225;28;20502;-65
2021/06/11 10:59:36;;;;;;;21.92;19.15;;;;;;;;;;5006574;28;20380;-65
2021/06/11 11:02:03;;;;;;;18.25;16.35;;;;;;;;;;4993495;28;20383;-65
2021/06/11 11:04:30;;;;;;;21.40;18.92;;;;;;;;;;5005396;28;20037;-64
2021/06/11 11:06:56;;;;;;;24.27;19.73;;;;;;;;;;5006594;28;20018;-64
2021/06/11 11:09:22;;;;;;;20.77;17.98;;;;;;;;;;5006308;28;20557;-64
2021/06/11 11:11:58;;;;;;;21.27;16.85;;;;;;;;;;5005189;28;20049;-65
2021/06/11 11:14:36;;;;;;;19.15;17.10;;;;;;;;;;5009234;28;20037;-64
2021/06/11 11:17:03;;;;;;;18.50;16.50;;;;;;;;;;5006899;28;20030;-65
2021/06/11 11:19:55;;;;;;;18.67;14.95;;;;;;;;;;5006734;28;20590;-64
2021/06/11 11:22:28;;;;;;;16.05;12.98;;;;;;;;;;5005275;28;20038;-64
2021/06/11 11:24:55;;;;;;;22.10;17.05;;;;;;;;;;5004961;28;20041;-65
2021/06/11 11:27:22;;;;;;;18.23;15.48;;;;;;;;;;5008641;28;20425;-65
2021/06/11 11:29:48;;;;;;;18.15;15.15;;;;;;;;;;5007292;28;20038;-65
2021/06/11 11:32:14;;;;;;;17.95;13.80;;;;;;;;;;5010838;28;20026;-65
2021/06/11 11:34:40;;;;;;;17.50;13.20;;;;;;;;;;5010423;28;20021;-65
2021/06/11 11:37:05;;;;;;;17.20;13.35;;;;;;;;;;5008075;28;20037;-65
2021/06/11 11:39:31;;;;;;;16.50;12.95;;;;;;;;;;5005584;28;20117;-65
2021/06/11 11:41:58;;;;;;;13.63;11.05;;;;;;;;;;5011162;28;20022;-66
2021/06/11 11:44:26;;;;;;;13.65;12.18;;;;;;;;;;5014947;28;20022;-65
2021/06/11 11:46:54;;;;;;;17.63;12.70;;;;;;;;;;5009010;28;20109;-65
2021/06/11 11:49:20;;;;;;;14.20;12.43;;;;;;;;;;5011047;28;20491;-65
2021/06/11 11:51:46;;;;;;;12.80;11.50;;;;;;;;;;5012093;28;20511;-65
2021/06/11 11:54:12;;;;;;;13.10;11.73;;;;;;;;;;5007280;28;20105;-65
2021/06/11 11:56:38;;;;;;;16.95;12.63;;;;;;;;;;5008561;28;20038;-65
2021/06/11 11:59:06;;;;;;;13.60;12.18;;;;;;;;;;5008692;28;20030;-65
2021/06/11 12:01:36;;;;;;;16.95;14.07;;;;;;;;;;5011035;28;20029;-65
2021/06/11 12:04:02;;;;;;;17.67;14.32;;;;;;;;;;5009731;28;20072;-65
2021/06/11 12:06:28;;;;;;;16.92;12.48;;;;;;;;;;4999022;28;20627;-65
2021/06/11 12:08:54;;;;;;;15.25;12.93;;;;;;;;;;5009873;28;20057;-65
2021/06/11 12:11:20;;;;;;;13.95;11.48;;;;;;;;;;5016227;28;20060;-65
2021/06/11 12:13:46;;;;;;;13.90;11.23;;;;;;;;;;5012448;28;20061;-65
2021/06/11 12:16:12;;;;;;;13.00;11.38;;;;;;;;;;5013019;28;20040;-65
2021/06/11 12:18:38;;;;;;;12.07;10.40;;;;;;;;;;5010219;28;20040;-65
2021/06/11 12:21:07;;;;;;;13.55;12.15;;;;;;;;;;5005673;28;20025;-65
2021/06/11 12:23:33;;;;;;;14.05;12.35;;;;;;;;;;5007755;28;20105;-65
2021/06/11 12:25:59;;;;;;;10.90;9.57;;;;;;;;;;5005980;28;20106;-65
2021/06/11 12:28:25;;;;;;;12.65;10.77;;;;;;;;;;5011037;28;20029;-65
2021/06/11 12:30:51;;;;;;;15.35;10.95;;;;;;;;;;5008485;28;20022;-65
2021/06/11 12:33:17;;;;;;;10.27;8.60;;;;;;;;;;5012239;28;20032;-65
2021/06/11 12:35:43;;;;;;;10.48;9.00;;;;;;;;;;5009380;28;20030;-65
2021/06/11 12:38:09;;;;;;;13.48;9.95;;;;;;;;;;5008404;28;20030;-65
2021/06/11 12:40:38;;;;;;;12.07;10.77;;;;;;;;;;5004790;28;20030;-65
2021/06/11 12:43:04;;;;;;;13.25;11.10;;;;;;;;;;5010947;28;20022;-65
2021/06/11 12:45:31;;;;;;;14.10;10.05;;;;;;;;;;5011586;28;20110;-65
2021/06/11 12:47:57;;;;;;;10.23;8.95;;;;;;;;;;5009490;28;20070;-64
2021/06/11 12:50:23;;;;;;;11.73;10.07;;;;;;;;;;5011141;28;20593;-64
2021/06/11 12:52:49;;;;;;;10.73;9.35;;;;;;;;;;5002636;28;20364;-64
2021/06/11 12:55:15;;;;;;;12.52;9.73;;;;;;;;;;5011438;28;20029;-64
2021/06/11 12:57:41;;;;;;;14.00;10.25;;;;;;;;;;5008936;28;20034;-65
2021/06/11 13:00:08;;;;;;;13.52;10.57;;;;;;;;;;5008981;28;20080;-65
2021/06/11 13:02:34;;;;;;;14.32;10.13;;;;;;;;;;4997655;28;20038;-65
2021/06/11 13:05:00;;;;;;;13.88;10.48;;;;;;;;;;5010911;28;20034;-65
2021/06/11 13:07:27;;;;;;;12.45;9.32;;;;;;;;;;5009362;28;20037;-65
2021/06/11 13:09:53;;;;;;;11.98;8.60;;;;;;;;;;5007801;28;20014;-65
2021/06/11 13:12:19;;;;;;;8.77;7.57;;;;;;;;;;5006779;28;20022;-65
2021/06/11 13:14:45;;;;;;;13.25;8.07;;;;;;;;;;5008234;28;20394;-65
2021/06/11 13:17:11;;;;;;;10.63;7.30;;;;;;;;;;5009668;28;20079;-65
2021/06/11 13:19:37;;;;;;;12.07;8.27;;;;;;;;;;5011189;28;20159;-66
2021/06/11 13:22:03;;;;;;;13.82;8.48;;;;;;;;;;5009620;28;20105;-65
2021/06/11 13:24:29;;;;;;;11.27;7.82;;;;;;;;;;5007395;28;20033;-65
2021/06/11 13:26:55;;;;;;;11.60;8.55;;;;;;;;;;5005317;28;20030;-65
2021/06/11 13:29:22;;;;;;;10.50;7.35;;;;;;;;;;5007782;28;20022;-65
2021/06/11 13:31:48;;;;;;;17.13;8.80;;;;;;;;;;5006149;28;20061;-66
2021/06/11 13:34:14;;;;;;;8.88;7.85;;;;;;;;;;5008985;28;20487;-66
2021/06/11 13:36:40;;;;;;;12.80;8.07;;;;;;;;;;5009760;28;20030;-65
2021/06/11 13:39:06;;;;;;;11.20;8.50;;;;;;;;;;5008875;28;20026;-65
2021/06/11 13:41:32;;;;;;;13.93;10.57;;;;;;;;;;5006986;28;20112;-65
2021/06/11 13:44:00;;;;;;;11.80;8.80;;;;;;;;;;5008586;28;20460;-64
2021/06/11 13:46:26;;;;;;;13.52;9.25;;;;;;;;;;5007265;28;20422;-66
2021/06/11 13:48:52;;;;;;;10.48;8.90;;;;;;;;;;5007119;28;20476;-65
2021/06/11 13:51:18;;;;;;;13.05;7.97;;;;;;;;;;5004303;28;20399;-65
2021/06/11 13:53:44;;;;;;;11.68;7.32;;;;;;;;;;5007438;28;20033;-65
2021/06/11 13:56:10;;;;;;;10.57;6.68;;;;;;;;;;5008046;28;20088;-65
2021/06/11 13:58:36;;;;;;;8.60;6.13;;;;;;;;;;5004359;28;20072;-65
2021/06/11 14:01:03;;;;;;;8.15;6.10;;;;;;;;;;5005864;28;20018;-65
2021/06/11 14:03:28;;;;;;;10.85;5.82;;;;;;;;;;5006831;28;20061;-65
2021/06/11 14:05:55;;;;;;;11.88;5.88;;;;;;;;;;5014611;28;20061;-65
2021/06/11 14:08:21;;;;;;;10.02;6.25;;;;;;;;;;5004817;28;20026;-65
2021/06/11 14:10:47;;;;;;;10.10;5.43;;;;;;;;;;5005763;28;20363;-65
2021/06/11 14:13:13;;;;;;;9.60;6.15;;;;;;;;;;5008276;28;20030;-65
2021/06/11 14:15:40;;;;;;;7.82;4.90;;;;;;;;;;5009927;28;20030;-65
2021/06/11 14:18:06;;;;;;;7.57;4.70;;;;;;;;;;5009900;28;20032;-65
2021/06/11 14:20:32;;;;;;;6.13;3.55;;;;;;;;;;5003454;28;20073;-65
2021/06/11 14:22:58;;;;;;;6.97;3.03;;;;;;;;;;5017133;28;20058;-65